KELM

Elmira / Corning Regional Airport

Elmira/Corning, New York, USA
METAR KELM 182315Z 01007KT 10SM FEW027 OVC036 20/16 A2993 RMK AO2 T02000156
Observed Flight Rules
Aug-18 @ 23:15 UTC (31 minutes ago) Visual Flight Rules
Wind Visibility Clouds
10° at 7 knots 10 miles
  • Few at 2,700' AGL
  • Overcast at 3,600' AGL
Temperatures Readings
Current 20°C / 68°F
Dewpoint 16°C / 61°F
Humidity 78%
Altimeter 29.93" Hg
Pressure 1014 hPa
Elevation 302
METAR KELM 182315Z 01007KT 10SM FEW027 OVC036 20/16 A2993 RMK AO2 T02000156
Observed Flight Rules
Aug-18 @ 23:15 UTC
(31 minutes ago)
VFR
Wind Visibility
10° at 7 knots 10 miles
Clouds
  • Few at 2,700' AGL
  • Overcast at 3,600' AGL
Temperature Dewpoint
20°C / 68°F 16°C / 61°F
Humidity Altimeter Pressure
78% 29.93" Hg 1014 hPa